Terminal Aerodrome Forecast
Issued by NWS

Home | Current Version | Previous Version | Text Only | Print | Product List | Glossary On
Versions: 1 2 3 4 5 6 7 8 9 10 11 12
000
FTUS46 KMTR 021120
TAFSJC
TAF
KSJC 021120Z 0212/0312 30005KT P6SM SCT100 BKN180
     FM021700 VRB03KT P6SM BKN200
     FM022000 30010KT P6SM BKN200
     FM030400 29005KT P6SM SCT200
     FM031000 18006KT P6SM SCT015=

USA.gov is the U.S. government's official web portal to all federal, state and local government web resources and services.